Time;durP1;ratioP1;P1;durP2;ratioP2;P2;SDS_P1;SDS_P2;PMS_P1;PMS_P2;Temp;Humidity;BMP_temperature;BMP_pressure;BME280_temperature;BME280_humidity;BME280_pressure;Samples;Min_cycle;Max_cycle;Signal;HPM_P1;HPM_P2
2023/08/22 00:00:40;;;;;;;10.23;6.40;;;;;;;;;;7372459;19;20014;-73
2023/08/22 00:03:05;;;;;;;11.40;6.25;;;;;;;;;;7372161;19;20007;-73
2023/08/22 00:05:30;;;;;;;9.65;6.82;;;;;;;;;;7370939;19;20021;-73
2023/08/22 00:07:56;;;;;;;10.45;6.55;;;;;;;;;;7370782;19;20013;-73
2023/08/22 00:10:21;;;;;;;8.95;6.32;;;;;;;;;;7395274;19;20002;-73
2023/08/22 00:12:47;;;;;;;11.00;6.72;;;;;;;;;;7372681;19;20346;-73
2023/08/22 00:15:13;;;;;;;10.75;6.85;;;;;;;;;;7371088;19;20775;-73
2023/08/22 00:17:40;;;;;;;10.02;6.60;;;;;;;;;;7373213;19;20003;-72
2023/08/22 00:20:09;;;;;;;11.05;7.03;;;;;;;;;;7372563;19;20010;-72
2023/08/22 00:22:37;;;;;;;11.88;6.82;;;;;;;;;;7394684;19;20003;-73
2023/08/22 00:25:07;;;;;;;12.70;6.55;;;;;;;;;;7368807;19;20398;-73
2023/08/22 00:27:33;;;;;;;10.30;6.43;;;;;;;;;;7372395;19;20687;-73
2023/08/22 00:29:59;;;;;;;11.02;6.82;;;;;;;;;;7373043;19;20101;-73
2023/08/22 00:32:24;;;;;;;11.50;6.82;;;;;;;;;;7372856;19;20010;-74
2023/08/22 00:34:49;;;;;;;11.20;7.05;;;;;;;;;;7370148;19;20014;-73
2023/08/22 00:37:15;;;;;;;12.25;6.82;;;;;;;;;;7393488;19;20017;-74
2023/08/22 00:39:40;;;;;;;10.43;7.07;;;;;;;;;;7369685;19;20041;-73
2023/08/22 00:42:06;;;;;;;8.68;6.13;;;;;;;;;;7372120;19;20460;-72
2023/08/22 00:44:31;;;;;;;11.43;6.13;;;;;;;;;;7371144;19;20007;-74
2023/08/22 00:46:57;;;;;;;11.50;6.75;;;;;;;;;;7378298;19;20392;-74
2023/08/22 00:49:22;;;;;;;8.55;6.25;;;;;;;;;;7401845;19;19998;-73
2023/08/22 00:51:48;;;;;;;11.93;6.38;;;;;;;;;;7377702;19;20115;-72
2023/08/22 00:54:15;;;;;;;11.65;7.35;;;;;;;;;;7368841;19;20007;-73
2023/08/22 00:56:41;;;;;;;14.15;7.40;;;;;;;;;;7371607;19;20099;-72
2023/08/22 00:59:08;;;;;;;12.90;7.50;;;;;;;;;;7371462;19;20014;-72
2023/08/22 01:01:33;;;;;;;8.98;6.95;;;;;;;;;;7391743;19;20018;-72
2023/08/22 01:03:59;;;;;;;12.02;6.85;;;;;;;;;;7370540;19;20018;-72
2023/08/22 01:06:53;;;;;;;13.38;7.80;;;;;;;;;;7370354;19;20077;-73
2023/08/22 01:09:30;;;;;;;13.05;8.07;;;;;;;;;;7371881;19;20094;-73
2023/08/22 01:12:13;;;;;;;11.15;7.22;;;;;;;;;;7370353;19;20015;-72
2023/08/22 01:14:42;;;;;;;10.65;7.60;;;;;;;;;;7368892;19;20011;-73
2023/08/22 01:17:09;;;;;;;10.20;7.72;;;;;;;;;;7371208;19;20090;-73
2023/08/22 01:19:34;;;;;;;12.85;7.68;;;;;;;;;;7392949;19;20002;-73
2023/08/22 01:21:59;;;;;;;13.20;8.07;;;;;;;;;;7370631;19;20033;-72
2023/08/22 01:24:25;;;;;;;10.07;7.32;;;;;;;;;;7368834;19;20043;-72
2023/08/22 01:26:50;;;;;;;12.73;8.02;;;;;;;;;;7370034;19;20372;-73
2023/08/22 01:29:27;;;;;;;11.00;7.90;;;;;;;;;;7371058;19;20007;-74
2023/08/22 01:31:58;;;;;;;12.85;8.85;;;;;;;;;;7370414;19;20029;-74
2023/08/22 01:34:29;;;;;;;12.30;8.95;;;;;;;;;;7390882;19;20010;-72
2023/08/22 01:36:54;;;;;;;;;;;;;;;;;;7370426;19;20015;-73
2023/08/22 01:39:22;;;;;;;12.60;8.55;;;;;;;;;;7369718;19;20420;-73
2023/08/22 01:41:48;;;;;;;10.45;8.15;;;;;;;;;;7370460;19;20006;-73
2023/08/22 01:44:14;;;;;;;10.23;8.40;;;;;;;;;;7371167;19;20034;-72
2023/08/22 01:46:39;;;;;;;13.27;9.52;;;;;;;;;;7404846;19;20015;-72
2023/08/22 01:49:05;;;;;;;13.25;9.02;;;;;;;;;;7383173;19;20006;-74
2023/08/22 01:51:30;;;;;;;14.23;9.57;;;;;;;;;;7369360;19;20006;-74
2023/08/22 01:53:55;;;;;;;14.30;8.95;;;;;;;;;;7368764;19;20075;-73
2023/08/22 01:56:21;;;;;;;12.20;8.80;;;;;;;;;;7367711;19;20019;-73
2023/08/22 01:58:46;;;;;;;14.45;8.27;;;;;;;;;;7369589;19;20007;-72
2023/08/22 02:01:12;;;;;;;12.57;9.25;;;;;;;;;;7390577;19;20002;-73
2023/08/22 02:03:41;;;;;;;11.88;8.50;;;;;;;;;;7369061;19;20011;-74
2023/08/22 02:06:07;;;;;;;14.13;8.93;;;;;;;;;;7368277;19;20006;-73
2023/08/22 02:08:32;;;;;;;12.90;8.85;;;;;;;;;;7369213;19;20368;-73
2023/08/22 02:10:58;;;;;;;12.00;9.60;;;;;;;;;;7372481;19;20010;-73
2023/08/22 02:13:23;;;;;;;15.00;9.77;;;;;;;;;;7400534;19;20004;-72
2023/08/22 02:15:48;;;;;;;15.68;9.70;;;;;;;;;;7379700;19;20006;-72
2023/08/22 02:18:14;;;;;;;13.75;10.70;;;;;;;;;;7378571;19;20051;-74
2023/08/22 02:20:39;;;;;;;15.55;9.60;;;;;;;;;;7374308;19;20007;-73
2023/08/22 02:23:05;;;;;;;10.82;9.60;;;;;;;;;;7375307;19;20027;-73
2023/08/22 02:25:33;;;;;;;10.40;8.85;;;;;;;;;;7391027;19;20006;-74
2023/08/22 02:27:59;;;;;;;15.32;9.52;;;;;;;;;;7367263;19;20010;-73
2023/08/22 02:30:24;;;;;;;13.93;9.25;;;;;;;;;;7368841;19;20017;-72
2023/08/22 02:32:50;;;;;;;13.32;9.57;;;;;;;;;;7368030;19;20884;-73
2023/08/22 02:35:15;;;;;;;12.85;9.35;;;;;;;;;;7366032;19;20096;-73
2023/08/22 02:37:40;;;;;;;16.77;9.00;;;;;;;;;;7391210;19;20514;-73
2023/08/22 02:40:09;;;;;;;12.10;9.70;;;;;;;;;;7376892;19;20022;-72
2023/08/22 02:42:37;;;;;;;14.45;9.63;;;;;;;;;;7377178;19;20006;-73
2023/08/22 02:45:04;;;;;;;12.07;9.73;;;;;;;;;;7370191;19;20059;-73
2023/08/22 02:47:31;;;;;;;13.90;9.43;;;;;;;;;;7367967;19;20031;-73
2023/08/22 02:49:59;;;;;;;14.90;10.32;;;;;;;;;;7370094;19;20331;-72
2023/08/22 02:52:25;;;;;;;14.70;10.10;;;;;;;;;;7390451;19;19994;-72
2023/08/22 02:54:51;;;;;;;16.55;10.68;;;;;;;;;;7365168;19;20002;-73
2023/08/22 02:57:16;;;;;;;12.80;9.70;;;;;;;;;;7368218;19;20481;-73
2023/08/22 02:59:42;;;;;;;13.98;9.20;;;;;;;;;;7368009;19;20031;-72
2023/08/22 03:02:07;;;;;;;16.40;10.43;;;;;;;;;;7368112;19;20081;-74
2023/08/22 03:04:33;;;;;;;12.32;9.25;;;;;;;;;;7395009;19;20027;-74
2023/08/22 03:06:59;;;;;;;16.77;9.68;;;;;;;;;;7373014;19;20022;-74
2023/08/22 03:09:25;;;;;;;13.18;9.43;;;;;;;;;;7375881;19;20464;-74
2023/08/22 03:11:50;;;;;;;16.02;9.25;;;;;;;;;;7375464;19;20063;-73
2023/08/22 03:14:16;;;;;;;10.23;8.73;;;;;;;;;;7374094;19;20010;-74
2023/08/22 03:16:41;;;;;;;11.85;8.73;;;;;;;;;;7397174;19;20358;-73
2023/08/22 03:19:06;;;;;;;14.25;8.40;;;;;;;;;;7375899;19;19999;-74
2023/08/22 03:21:32;;;;;;;13.23;8.50;;;;;;;;;;7376408;19;20006;-74
2023/08/22 03:23:57;;;;;;;16.52;9.35;;;;;;;;;;7373213;19;20002;-73
2023/08/22 03:26:22;;;;;;;12.23;7.80;;;;;;;;;;7373201;19;20014;-73
2023/08/22 03:28:48;;;;;;;13.10;7.93;;;;;;;;;;7374490;19;20323;-72
2023/08/22 03:31:13;;;;;;;11.80;8.52;;;;;;;;;;7396419;19;19999;-73
2023/08/22 03:33:39;;;;;;;13.65;8.40;;;;;;;;;;7374241;19;20014;-73
2023/08/22 03:36:04;;;;;;;12.77;8.52;;;;;;;;;;7373734;19;20002;-73
2023/08/22 03:38:30;;;;;;;14.05;7.97;;;;;;;;;;7374508;19;20023;-74
2023/08/22 03:40:56;;;;;;;18.52;8.00;;;;;;;;;;7374046;19;20334;-75
2023/08/22 03:43:21;;;;;;;13.07;8.20;;;;;;;;;;7395427;19;20002;-74
2023/08/22 03:45:47;;;;;;;14.38;8.07;;;;;;;;;;7372530;19;20031;-74
2023/08/22 03:48:13;;;;;;;11.30;8.35;;;;;;;;;;7373333;19;20003;-74
2023/08/22 03:50:39;;;;;;;22.17;8.98;;;;;;;;;;7374013;19;20019;-73
2023/08/22 03:53:05;;;;;;;12.07;8.55;;;;;;;;;;7374395;19;20010;-73
2023/08/22 03:55:31;;;;;;;16.00;8.30;;;;;;;;;;7392105;19;20031;-72
2023/08/22 03:57:59;;;;;;;10.98;7.85;;;;;;;;;;7372677;19;20006;-73
2023/08/22 04:00:25;;;;;;;12.32;8.75;;;;;;;;;;7372865;19;20002;-73
2023/08/22 04:02:58;;;;;;;12.63;8.23;;;;;;;;;;7371292;19;20012;-73
2023/08/22 04:05:24;;;;;;;11.68;8.85;;;;;;;;;;7370236;19;20030;-74
2023/08/22 04:07:50;;;;;;;13.02;8.57;;;;;;;;;;7371164;19;20393;-73
2023/08/22 04:10:16;;;;;;;13.65;8.70;;;;;;;;;;7394487;19;20012;-74
2023/08/22 04:12:41;;;;;;;18.23;9.40;;;;;;;;;;7372860;19;20026;-73
2023/08/22 04:15:08;;;;;;;11.80;8.25;;;;;;;;;;7371817;19;20013;-73
2023/08/22 04:17:34;;;;;;;13.13;8.18;;;;;;;;;;7372733;19;20006;-73
2023/08/22 04:19:59;;;;;;;11.95;8.73;;;;;;;;;;7372585;19;20010;-74
2023/08/22 04:22:24;;;;;;;15.30;8.55;;;;;;;;;;7395043;19;19998;-74
2023/08/22 04:24:50;;;;;;;10.48;8.52;;;;;;;;;;7368595;19;20010;-74
2023/08/22 04:27:15;;;;;;;12.65;8.93;;;;;;;;;;7370465;19;20014;-74
2023/08/22 04:29:40;;;;;;;13.27;8.80;;;;;;;;;;7374177;19;20007;-74
2023/08/22 04:32:06;;;;;;;12.75;8.35;;;;;;;;;;7379286;19;20405;-73
2023/08/22 04:34:31;;;;;;;13.43;9.52;;;;;;;;;;7396367;19;20006;-74
2023/08/22 04:36:56;;;;;;;14.20;9.40;;;;;;;;;;7372578;19;20014;-73
2023/08/22 04:39:21;;;;;;;15.70;8.85;;;;;;;;;;7372315;19;20022;-75
2023/08/22 04:41:50;;;;;;;13.10;9.10;;;;;;;;;;7372199;19;20020;-73
2023/08/22 04:44:15;;;;;;;13.73;8.68;;;;;;;;;;7369879;19;20013;-73
2023/08/22 04:46:41;;;;;;;13.88;9.38;;;;;;;;;;7393979;19;20062;-74
2023/08/22 04:49:06;;;;;;;16.40;9.20;;;;;;;;;;7373256;19;20035;-74
2023/08/22 04:51:31;;;;;;;12.07;8.60;;;;;;;;;;7372791;19;20080;-73
2023/08/22 04:53:56;;;;;;;13.90;8.48;;;;;;;;;;7369759;19;20086;-73
2023/08/22 04:56:22;;;;;;;13.77;8.27;;;;;;;;;;7371169;19;20014;-73
2023/08/22 04:58:47;;;;;;;12.45;8.18;;;;;;;;;;7371515;19;20810;-73
2023/08/22 05:01:12;;;;;;;11.65;7.85;;;;;;;;;;7393137;19;20464;-73
2023/08/22 05:03:38;;;;;;;12.23;7.72;;;;;;;;;;7371860;19;20015;-73
2023/08/22 05:06:03;;;;;;;13.50;8.10;;;;;;;;;;7370465;19;20017;-73
2023/08/22 05:08:28;;;;;;;13.30;7.55;;;;;;;;;;7371756;19;20030;-73
2023/08/22 05:10:54;;;;;;;13.10;7.18;;;;;;;;;;7371698;19;19994;-73
2023/08/22 05:13:19;;;;;;;11.75;7.47;;;;;;;;;;7392969;19;20002;-74
2023/08/22 05:15:44;;;;;;;15.68;7.80;;;;;;;;;;7370202;19;20010;-73
2023/08/22 05:18:10;;;;;;;13.55;6.80;;;;;;;;;;7370371;19;20006;-73
2023/08/22 05:20:37;;;;;;;12.98;7.60;;;;;;;;;;7370425;19;20018;-73
2023/08/22 05:23:03;;;;;;;12.38;7.57;;;;;;;;;;7371658;19;20004;-73
2023/08/22 05:25:28;;;;;;;14.80;8.13;;;;;;;;;;7388658;19;20836;-73
2023/08/22 05:27:54;;;;;;;10.52;7.20;;;;;;;;;;7369249;19;20014;-73
2023/08/22 05:30:19;;;;;;;10.55;7.43;;;;;;;;;;7371078;19;20089;-73
2023/08/22 05:32:44;;;;;;;11.77;7.50;;;;;;;;;;7371654;19;20097;-73
2023/08/22 05:35:10;;;;;;;14.98;7.22;;;;;;;;;;7367853;19;20031;-73
2023/08/22 05:37:35;;;;;;;10.65;7.22;;;;;;;;;;7393402;19;20015;-73
2023/08/22 05:40:00;;;;;;;12.68;6.20;;;;;;;;;;7377698;19;20010;-72
2023/08/22 05:42:26;;;;;;;12.73;6.65;;;;;;;;;;7378649;19;20392;-73
2023/08/22 05:44:51;;;;;;;13.95;6.53;;;;;;;;;;7377134;19;20100;-72
2023/08/22 05:47:17;;;;;;;9.80;6.18;;;;;;;;;;7377234;19;20611;-73
2023/08/22 05:49:43;;;;;;;8.98;6.30;;;;;;;;;;7393287;19;20010;-73
2023/08/22 05:52:09;;;;;;;9.23;5.63;;;;;;;;;;7390767;19;20524;-73
2023/08/22 05:54:34;;;;;;;9.13;5.60;;;;;;;;;;7367897;19;20035;-73
2023/08/22 05:57:00;;;;;;;10.70;5.72;;;;;;;;;;7370470;19;20065;-73
2023/08/22 05:59:25;;;;;;;9.80;6.05;;;;;;;;;;7385201;19;20010;-74
2023/08/22 06:01:50;;;;;;;12.48;6.60;;;;;;;;;;7375990;19;20014;-74
2023/08/22 06:04:17;;;;;;;7.90;6.15;;;;;;;;;;7394224;19;19999;-73
2023/08/22 06:06:43;;;;;;;10.15;5.85;;;;;;;;;;7391475;19;20015;-73
2023/08/22 06:09:08;;;;;;;12.82;6.07;;;;;;;;;;7392250;19;20023;-74
2023/08/22 06:11:33;;;;;;;14.70;5.82;;;;;;;;;;7380896;19;20006;-74
2023/08/22 06:13:59;;;;;;;10.23;5.38;;;;;;;;;;7370600;19;19998;-73
2023/08/22 06:16:24;;;;;;;8.57;5.13;;;;;;;;;;7391080;19;20010;-73
2023/08/22 06:18:49;;;;;;;9.27;5.05;;;;;;;;;;7369910;19;20232;-73
2023/08/22 06:21:15;;;;;;;11.85;6.05;;;;;;;;;;7370739;19;20016;-74
2023/08/22 06:23:40;;;;;;;13.43;5.45;;;;;;;;;;7369603;19;20025;-73
2023/08/22 06:26:05;;;;;;;11.85;5.30;;;;;;;;;;7368435;19;20010;-73
2023/08/22 06:28:31;;;;;;;8.10;5.05;;;;;;;;;;7391438;19;20082;-73
2023/08/22 06:31:03;;;;;;;11.35;5.32;;;;;;;;;;7369235;19;20022;-73
2023/08/22 06:33:29;;;;;;;12.25;5.30;;;;;;;;;;7369450;19;20010;-73
2023/08/22 06:35:54;;;;;;;14.20;5.45;;;;;;;;;;7368832;19;20103;-74
2023/08/22 06:38:20;;;;;;;8.30;4.90;;;;;;;;;;7367503;19;20010;-73
2023/08/22 06:40:45;;;;;;;13.10;5.50;;;;;;;;;;7369535;19;20562;-73
2023/08/22 06:43:10;;;;;;;10.20;5.40;;;;;;;;;;7391023;19;20245;-73
2023/08/22 06:45:35;;;;;;;9.20;4.87;;;;;;;;;;7368200;19;20014;-74
2023/08/22 06:48:01;;;;;;;12.00;4.88;;;;;;;;;;7368995;19;20218;-73
2023/08/22 06:50:26;;;;;;;10.85;5.35;;;;;;;;;;7368397;19;20086;-73
2023/08/22 06:52:51;;;;;;;10.80;5.10;;;;;;;;;;7368906;19;20003;-73
2023/08/22 06:55:17;;;;;;;11.57;5.57;;;;;;;;;;7386786;19;20801;-73
2023/08/22 06:57:42;;;;;;;10.13;5.38;;;;;;;;;;7367338;19;20410;-73
2023/08/22 07:00:14;;;;;;;15.65;5.55;;;;;;;;;;7362390;19;20464;-73
2023/08/22 07:02:44;;;;;;;12.68;5.93;;;;;;;;;;7367530;19;20077;-73
2023/08/22 07:05:11;;;;;;;16.08;5.18;;;;;;;;;;7366003;19;20010;-73
2023/08/22 07:07:37;;;;;;;11.38;5.80;;;;;;;;;;7388856;19;20074;-73
2023/08/22 07:10:08;;;;;;;13.82;5.75;;;;;;;;;;7367875;19;20003;-73
2023/08/22 07:12:34;;;;;;;9.65;5.18;;;;;;;;;;7368202;19;20074;-73
2023/08/22 07:14:59;;;;;;;9.57;5.40;;;;;;;;;;7367078;19;20027;-73
2023/08/22 07:17:24;;;;;;;14.38;5.78;;;;;;;;;;7368336;19;20002;-73
2023/08/22 07:19:50;;;;;;;17.35;6.20;;;;;;;;;;7367560;19;20074;-72
2023/08/22 07:22:15;;;;;;;11.45;5.47;;;;;;;;;;7389576;19;20038;-73
2023/08/22 07:24:40;;;;;;;10.15;5.00;;;;;;;;;;7364163;19;20040;-73
2023/08/22 07:27:09;;;;;;;12.10;5.30;;;;;;;;;;7367162;19;20011;-74
2023/08/22 07:29:35;;;;;;;13.13;5.40;;;;;;;;;;7380166;19;20007;-74
2023/08/22 07:32:00;;;;;;;11.43;6.00;;;;;;;;;;7374645;19;20015;-74
2023/08/22 07:34:25;;;;;;;13.93;5.10;;;;;;;;;;7387165;19;20671;-74
2023/08/22 07:36:54;;;;;;;13.90;5.20;;;;;;;;;;7371668;19;20488;-74
2023/08/22 07:39:20;;;;;;;9.63;5.43;;;;;;;;;;7371394;19;20021;-74
2023/08/22 07:41:46;;;;;;;12.65;5.78;;;;;;;;;;7368618;19;20027;-73
2023/08/22 07:44:12;;;;;;;13.65;5.65;;;;;;;;;;7365944;19;20390;-73
2023/08/22 07:46:38;;;;;;;10.40;5.72;;;;;;;;;;7388427;19;20019;-74
2023/08/22 07:49:03;;;;;;;12.70;5.13;;;;;;;;;;7369447;19;20379;-73
2023/08/22 07:51:29;;;;;;;11.18;5.50;;;;;;;;;;7374152;19;20017;-73
2023/08/22 07:53:54;;;;;;;12.32;6.18;;;;;;;;;;7373602;19;19994;-74
2023/08/22 07:56:19;;;;;;;14.35;5.70;;;;;;;;;;7373252;19;20011;-73
2023/08/22 07:58:45;;;;;;;11.38;6.13;;;;;;;;;;7374580;19;20012;-74
2023/08/22 08:01:10;;;;;;;7.90;5.45;;;;;;;;;;7394717;19;19998;-74
2023/08/22 08:03:35;;;;;;;12.30;5.03;;;;;;;;;;7372571;19;20010;-73
2023/08/22 08:06:01;;;;;;;10.70;5.57;;;;;;;;;;7372788;19;20007;-73
2023/08/22 08:08:26;;;;;;;13.85;5.50;;;;;;;;;;7373106;19;20287;-73
2023/08/22 08:10:51;;;;;;;10.80;5.60;;;;;;;;;;7374386;19;20006;-74
2023/08/22 08:13:17;;;;;;;13.02;6.22;;;;;;;;;;7395977;19;20030;-74
2023/08/22 08:15:42;;;;;;;12.90;5.85;;;;;;;;;;7372439;19;20010;-74
2023/08/22 08:18:10;;;;;;;10.52;5.40;;;;;;;;;;7374342;19;20011;-74
2023/08/22 08:20:35;;;;;;;14.95;4.97;;;;;;;;;;7374167;19;20046;-74
2023/08/22 08:23:01;;;;;;;11.98;5.68;;;;;;;;;;7374135;19;19999;-74
2023/08/22 08:25:26;;;;;;;12.38;5.88;;;;;;;;;;7391857;19;20356;-74
2023/08/22 08:27:51;;;;;;;14.17;5.90;;;;;;;;;;7370535;19;20053;-74
2023/08/22 08:30:17;;;;;;;15.03;5.87;;;;;;;;;;7374030;19;20611;-74
2023/08/22 08:32:42;;;;;;;11.57;5.30;;;;;;;;;;7373524;19;20247;-74
2023/08/22 08:35:07;;;;;;;12.65;5.25;;;;;;;;;;7369988;19;20352;-74
2023/08/22 08:37:33;;;;;;;13.73;5.35;;;;;;;;;;7395077;19;20158;-73
2023/08/22 08:39:58;;;;;;;9.18;4.78;;;;;;;;;;7373365;19;20354;-74
2023/08/22 08:42:24;;;;;;;13.30;5.65;;;;;;;;;;7372864;19;20822;-73
2023/08/22 08:44:50;;;;;;;12.00;5.25;;;;;;;;;;7370900;19;20017;-73
2023/08/22 08:47:15;;;;;;;11.57;5.18;;;;;;;;;;7371248;19;20089;-73
2023/08/22 08:49:41;;;;;;;12.05;4.70;;;;;;;;;;7394568;19;20457;-74
2023/08/22 08:52:08;;;;;;;7.68;3.95;;;;;;;;;;7371983;19;20455;-72
2023/08/22 08:54:34;;;;;;;8.85;4.45;;;;;;;;;;7369572;19;20007;-73
2023/08/22 08:57:00;;;;;;;11.90;4.80;;;;;;;;;;7371689;19;20007;-73
2023/08/22 08:59:26;;;;;;;8.25;4.18;;;;;;;;;;7378859;19;20013;-73
2023/08/22 09:01:51;;;;;;;11.27;5.25;;;;;;;;;;7380939;19;20007;-74
2023/08/22 09:04:20;;;;;;;8.82;4.40;;;;;;;;;;7398583;19;20014;-73
2023/08/22 09:06:47;;;;;;;8.83;4.47;;;;;;;;;;7372933;19;20086;-73
2023/08/22 09:09:13;;;;;;;12.60;4.78;;;;;;;;;;7372570;19;20335;-72
2023/08/22 09:11:43;;;;;;;15.60;5.03;;;;;;;;;;7372223;19;20010;-73
2023/08/22 09:14:08;;;;;;;;;;;;;;;;;;7370636;19;20010;-73
2023/08/22 09:16:34;;;;;;;9.63;4.47;;;;;;;;;;7392861;19;19914;-72
2023/08/22 09:19:00;;;;;;;10.20;4.30;;;;;;;;;;7371290;19;20010;-73
2023/08/22 09:21:25;;;;;;;8.70;4.20;;;;;;;;;;7372204;19;20347;-73
2023/08/22 09:23:51;;;;;;;7.50;4.18;;;;;;;;;;7370380;19;20010;-72
2023/08/22 09:26:22;;;;;;;12.13;4.45;;;;;;;;;;7369703;19;20532;-72
2023/08/22 09:28:48;;;;;;;12.25;4.78;;;;;;;;;;7371000;19;20013;-72
2023/08/22 09:31:23;;;;;;;9.75;5.00;;;;;;;;;;7392627;19;20003;-73
2023/08/22 09:33:49;;;;;;;10.27;4.15;;;;;;;;;;7369691;19;20010;-72
2023/08/22 09:36:19;;;;;;;12.13;4.20;;;;;;;;;;7369687;19;20547;-72
2023/08/22 09:38:52;;;;;;;17.00;4.82;;;;;;;;;;7370329;19;20401;-72
2023/08/22 09:41:25;;;;;;;13.07;5.18;;;;;;;;;;7371628;19;20018;-73
2023/08/22 09:43:58;;;;;;;19.10;4.22;;;;;;;;;;7370375;19;20010;-73
2023/08/22 09:46:24;;;;;;;15.02;4.68;;;;;;;;;;7391449;19;19999;-73
2023/08/22 09:48:50;;;;;;;13.85;4.50;;;;;;;;;;7370224;19;20018;-73
2023/08/22 09:51:19;;;;;;;8.68;4.40;;;;;;;;;;7371080;19;20014;-74
2023/08/22 09:53:54;;;;;;;11.35;4.00;;;;;;;;;;7370453;19;20006;-73
2023/08/22 09:56:20;;;;;;;9.50;3.85;;;;;;;;;;7370159;19;20012;-73
2023/08/22 09:58:46;;;;;;;9.10;4.00;;;;;;;;;;7371019;19;19998;-73
2023/08/22 10:01:16;;;;;;;7.15;3.53;;;;;;;;;;7391644;19;20015;-73
2023/08/22 10:03:44;;;;;;;7.25;3.60;;;;;;;;;;7369417;19;20476;-73
2023/08/22 10:06:13;;;;;;;9.48;3.75;;;;;;;;;;7368628;19;20031;-73
2023/08/22 10:08:43;;;;;;;7.55;3.75;;;;;;;;;;7370654;19;20010;-73
2023/08/22 10:11:11;;;;;;;10.05;4.05;;;;;;;;;;7370669;19;20007;-72
2023/08/22 10:13:38;;;;;;;12.70;4.38;;;;;;;;;;7392416;19;20758;-73
2023/08/22 10:16:04;;;;;;;8.48;4.20;;;;;;;;;;7368701;19;20013;-73
2023/08/22 10:18:30;;;;;;;7.90;4.30;;;;;;;;;;7369481;19;20063;-73
2023/08/22 10:20:56;;;;;;;6.78;4.05;;;;;;;;;;7371121;19;20379;-72
2023/08/22 10:23:52;;;;;;;7.05;3.97;;;;;;;;;;7372864;19;20010;-73
2023/08/22 10:26:26;;;;;;;11.93;4.47;;;;;;;;;;7383014;19;20014;-73
2023/08/22 10:29:13;;;;;;;8.68;4.05;;;;;;;;;;7373474;19;20330;-73
2023/08/22 10:32:00;;;;;;;9.07;3.78;;;;;;;;;;7405530;19;20616;-73
2023/08/22 10:34:37;;;;;;;7.07;4.20;;;;;;;;;;7368534;19;20038;-72
2023/08/22 10:37:03;;;;;;;9.15;3.72;;;;;;;;;;7365666;19;20021;-73
2023/08/22 10:39:48;;;;;;;8.25;3.45;;;;;;;;;;7369516;19;20010;-72
2023/08/22 10:42:18;;;;;;;8.98;4.03;;;;;;;;;;7368734;19;20747;-73
2023/08/22 10:44:54;;;;;;;5.55;3.08;;;;;;;;;;7366942;19;20030;-73
2023/08/22 10:47:32;;;;;;;6.63;3.38;;;;;;;;;;7367912;19;20010;-73
2023/08/22 10:49:59;;;;;;;8.43;3.53;;;;;;;;;;7369685;19;20457;-72
2023/08/22 10:52:32;;;;;;;6.55;3.58;;;;;;;;;;7390170;19;20010;-73
2023/08/22 10:55:08;;;;;;;10.02;3.70;;;;;;;;;;7365162;19;20429;-73
2023/08/22 10:57:36;;;;;;;9.48;4.03;;;;;;;;;;7368378;19;19995;-73
2023/08/22 11:00:20;;;;;;;7.28;3.88;;;;;;;;;;7368326;19;20015;-73
2023/08/22 11:02:49;;;;;;;7.43;3.08;;;;;;;;;;7367965;19;20018;-74
2023/08/22 11:05:15;;;;;;;6.83;3.60;;;;;;;;;;7367708;19;20010;-73
2023/08/22 11:07:43;;;;;;;9.70;3.97;;;;;;;;;;7387839;19;20010;-73
2023/08/22 11:10:11;;;;;;;10.32;3.75;;;;;;;;;;7368147;19;20033;-73
2023/08/22 11:12:38;;;;;;;12.63;3.73;;;;;;;;;;7367921;19;20032;-73
2023/08/22 11:15:04;;;;;;;10.57;3.38;;;;;;;;;;7367333;19;20055;-72
2023/08/22 11:17:29;;;;;;;9.40;3.70;;;;;;;;;;7368077;19;20089;-73
2023/08/22 11:19:57;;;;;;;8.77;3.70;;;;;;;;;;7368020;19;20462;-72
2023/08/22 11:22:23;;;;;;;14.68;4.35;;;;;;;;;;7390448;19;20033;-73
2023/08/22 11:24:49;;;;;;;17.50;4.35;;;;;;;;;;7370073;19;20006;-73
2023/08/22 11:27:16;;;;;;;11.02;3.15;;;;;;;;;;7373973;19;20040;-73
2023/08/22 11:29:52;;;;;;;6.82;2.65;;;;;;;;;;7376138;19;20439;-73
2023/08/22 11:32:27;;;;;;;5.20;2.85;;;;;;;;;;7375807;19;20035;-73
2023/08/22 11:34:57;;;;;;;5.32;2.72;;;;;;;;;;7372947;19;20024;-72
2023/08/22 11:37:26;;;;;;;4.95;2.97;;;;;;;;;;7397737;19;20013;-73
2023/08/22 11:39:53;;;;;;;6.55;3.05;;;;;;;;;;7376961;19;20007;-73
2023/08/22 11:42:20;;;;;;;5.53;3.00;;;;;;;;;;7377994;19;20456;-74
2023/08/22 11:45:03;;;;;;;6.03;2.88;;;;;;;;;;7374404;19;20022;-73
2023/08/22 11:47:41;;;;;;;9.65;3.70;;;;;;;;;;7375116;19;20010;-73
2023/08/22 11:50:13;;;;;;;7.88;3.42;;;;;;;;;;7375711;19;20010;-72
2023/08/22 11:52:44;;;;;;;7.30;4.00;;;;;;;;;;7396837;19;20010;-72
2023/08/22 11:55:10;;;;;;;9.55;3.63;;;;;;;;;;7370951;19;20006;-73
2023/08/22 11:57:41;;;;;;;10.90;3.78;;;;;;;;;;7375351;19;20495;-73
2023/08/22 12:00:08;;;;;;;6.78;3.25;;;;;;;;;;7392589;19;20007;-73
2023/08/22 12:02:34;;;;;;;6.47;3.58;;;;;;;;;;7378659;19;20014;-73
2023/08/22 12:04:59;;;;;;;8.13;3.65;;;;;;;;;;7373401;19;20010;-74
2023/08/22 12:07:25;;;;;;;8.27;3.50;;;;;;;;;;7395598;19;20003;-73
2023/08/22 12:10:03;;;;;;;10.88;4.10;;;;;;;;;;7373967;19;20027;-74
2023/08/22 12:12:29;;;;;;;11.20;3.90;;;;;;;;;;7374139;19;20007;-74
2023/08/22 12:14:54;;;;;;;10.23;3.60;;;;;;;;;;7372260;19;20517;-73
2023/08/22 12:17:20;;;;;;;15.63;4.00;;;;;;;;;;7373112;19;20010;-74
2023/08/22 12:19:45;;;;;;;13.43;3.50;;;;;;;;;;7373690;19;20039;-73
2023/08/22 12:22:10;;;;;;;6.85;3.65;;;;;;;;;;7394585;19;20480;-73
2023/08/22 12:24:36;;;;;;;7.27;3.17;;;;;;;;;;7370529;19;20007;-73
2023/08/22 12:27:01;;;;;;;10.07;3.53;;;;;;;;;;7372692;19;20811;-73
2023/08/22 12:29:27;;;;;;;6.50;3.30;;;;;;;;;;7373635;19;20014;-73
2023/08/22 12:31:52;;;;;;;5.75;2.85;;;;;;;;;;7373622;19;20006;-72
2023/08/22 12:34:17;;;;;;;6.15;3.35;;;;;;;;;;7392577;19;20419;-73
2023/08/22 12:36:42;;;;;;;7.57;3.37;;;;;;;;;;7372726;19;20464;-73
2023/08/22 12:39:12;;;;;;;8.02;3.42;;;;;;;;;;7373357;19;20248;-73
2023/08/22 12:41:38;;;;;;;6.78;3.08;;;;;;;;;;7373441;19;20014;-74
2023/08/22 12:44:04;;;;;;;6.80;3.00;;;;;;;;;;7371778;19;20000;-74
2023/08/22 12:46:29;;;;;;;6.32;3.05;;;;;;;;;;7393822;19;20473;-74
2023/08/22 12:48:54;;;;;;;12.52;3.05;;;;;;;;;;7372443;19;20007;-73
2023/08/22 12:51:20;;;;;;;8.30;3.03;;;;;;;;;;7373025;19;20013;-74
2023/08/22 12:53:45;;;;;;;7.10;2.83;;;;;;;;;;7371866;19;20007;-73
2023/08/22 12:56:10;;;;;;;5.63;3.03;;;;;;;;;;7365428;19;20346;-73
2023/08/22 12:58:36;;;;;;;5.57;3.03;;;;;;;;;;7392996;19;20260;-73
2023/08/22 13:01:03;;;;;;;6.05;2.45;;;;;;;;;;7371282;19;20007;-73
2023/08/22 13:03:28;;;;;;;5.03;2.47;;;;;;;;;;7373210;19;20035;-73
2023/08/22 13:05:54;;;;;;;6.70;2.92;;;;;;;;;;7371197;19;20531;-73
2023/08/22 13:08:19;;;;;;;9.03;2.73;;;;;;;;;;7371452;19;20011;-74
2023/08/22 13:10:45;;;;;;;5.30;2.80;;;;;;;;;;7371804;19;20263;-74
2023/08/22 13:13:10;;;;;;;7.20;2.90;;;;;;;;;;7393579;19;19998;-73
2023/08/22 13:15:35;;;;;;;8.60;3.03;;;;;;;;;;7370237;19;20006;-73
2023/08/22 13:18:01;;;;;;;5.78;2.70;;;;;;;;;;7373024;19;20010;-73
2023/08/22 13:20:26;;;;;;;5.97;2.88;;;;;;;;;;7372697;19;20027;-73
2023/08/22 13:22:51;;;;;;;5.07;2.70;;;;;;;;;;7372033;19;20020;-73
2023/08/22 13:25:17;;;;;;;5.60;2.70;;;;;;;;;;7390992;19;20004;-74
2023/08/22 13:27:42;;;;;;;6.63;2.50;;;;;;;;;;7378972;19;20006;-73
2023/08/22 13:30:08;;;;;;;5.75;2.90;;;;;;;;;;7385657;19;20002;-73
2023/08/22 13:32:34;;;;;;;4.55;2.58;;;;;;;;;;7374317;19;20003;-73
2023/08/22 13:34:59;;;;;;;5.43;2.80;;;;;;;;;;7367985;19;19998;-73
2023/08/22 13:37:30;;;;;;;5.82;2.60;;;;;;;;;;7394200;19;20007;-73
2023/08/22 13:39:56;;;;;;;9.18;3.25;;;;;;;;;;7371089;19;20007;-73
2023/08/22 13:42:21;;;;;;;5.95;2.65;;;;;;;;;;7371783;19;19998;-73
2023/08/22 13:44:47;;;;;;;9.23;2.80;;;;;;;;;;7369093;19;20346;-73
2023/08/22 13:47:12;;;;;;;6.40;2.65;;;;;;;;;;7369844;19;20011;-73
2023/08/22 13:49:38;;;;;;;7.70;2.77;;;;;;;;;;7393533;19;20388;-72
2023/08/22 13:52:04;;;;;;;5.85;2.80;;;;;;;;;;7370742;19;20285;-73
2023/08/22 13:54:29;;;;;;;6.47;2.80;;;;;;;;;;7368333;19;20359;-72
2023/08/22 13:56:55;;;;;;;6.90;2.50;;;;;;;;;;7370957;19;20010;-73
2023/08/22 13:59:20;;;;;;;4.90;2.70;;;;;;;;;;7369531;19;20263;-73
2023/08/22 14:01:47;;;;;;;5.78;2.88;;;;;;;;;;7369105;19;20027;-73
2023/08/22 14:04:13;;;;;;;5.05;2.80;;;;;;;;;;7388662;19;20460;-73
2023/08/22 14:06:38;;;;;;;9.20;2.80;;;;;;;;;;7370026;19;20009;-73
2023/08/22 14:09:04;;;;;;;4.70;2.40;;;;;;;;;;7371350;19;20010;-73
2023/08/22 14:11:29;;;;;;;5.07;2.50;;;;;;;;;;7370110;19;20006;-73
2023/08/22 14:13:54;;;;;;;6.85;2.55;;;;;;;;;;7369065;19;20260;-73
2023/08/22 14:16:20;;;;;;;8.45;2.67;;;;;;;;;;7389846;19;20002;-73
2023/08/22 14:18:45;;;;;;;5.07;2.50;;;;;;;;;;7368969;19;20451;-73
2023/08/22 14:21:11;;;;;;;4.78;2.60;;;;;;;;;;7370453;19;20038;-73
2023/08/22 14:23:36;;;;;;;4.90;2.83;;;;;;;;;;7362641;19;20009;-73
2023/08/22 14:26:02;;;;;;;4.65;3.13;;;;;;;;;;7368940;19;20015;-73
2023/08/22 14:28:27;;;;;;;6.53;2.67;;;;;;;;;;7389547;19;20473;-73
2023/08/22 14:30:59;;;;;;;6.20;2.63;;;;;;;;;;7373145;19;20002;-73
2023/08/22 14:33:25;;;;;;;6.70;2.58;;;;;;;;;;7378309;19;21182;-73